Airfield :
LOGIN :

Register | Disclaimer

   EN    FR    IT 

 










Legend :    VFR   Marginal VFR   IFR   Intensive IFR   Very Intensive IFR
Visi :
Ceiling :
>= 8 km
>= 3000ft
5 to 8 km
1000 to 3000 ft
1500m to 5 km
500 to 1000 ft
800 to 1500m
200 to 500 ft
< 800m
< 200 ft
Symbols :   Thunderstorms  Fog  Heavy snow  Heavy precipitations  Wind > 20 kt
SIGMETs :     Misc.  Thunderstorms  Icing  Turbulence  Mountain Waves  Volcanic Ashes






- Airport Elevation : 102 ft
- IATA code : CNG


LFBG - Cognac

CURRENT METAR :
  • 140930Z AUTO 05019KT CAVOK 11/M03 Q1026 BECMG 05015G25KT

EXPIRED METARs :
  • 140900Z AUTO 04015KT CAVOK 10/M02 Q1026 BECMG 05015G25KT
  • 140830Z AUTO 04014KT CAVOK 09/M02 Q1026 BECMG 05015G25KT
  • 140800Z AUTO 03011KT CAVOK 07/M01 Q1026 NOSIG
  • 140730Z AUTO 03013KT CAVOK 06/M01 Q1026 NOSIG
  • 140700Z AUTO 03012KT CAVOK 05/M01 Q1026 NOSIG

TAF TAF LFBG
Valid from the 14 at 09:00 until the 15 at 09:00 UTC


140800Z 1409/1509 05015G25KT CAVOK
BECMG 1421/1423 05010KT



MET'MAP, your aeronautical weather chart ! - Copyright ORBIFLY December 2007 - Disclaimer

ORBIFLY MET'MAP TEAM :

Programming & Development : Alexandra Zaïnal
Concept & original design : Baudouin d'Aumeries
Assistance for programming : Marc-Olivier Méhu
Technical & hardware support : Manuel Goepfert

Contact : metmap@orbifly.com




SOURCES & CREDITS :

   NOAA